Chicago Rockford International Airport
KRFD : now visible

Airfield :











YOU CAN JOIN US ON...

 
LOGIN :

Register | Disclaimer

   EN    FR    IT 

 









Legend :    VFR   Marginal VFR   IFR   Intensive IFR   Very Intensive IFR
Visi :
Ceiling :
>= 8 km
>= 3000ft
5 to 8 km
1000 to 3000 ft
1500m to 5 km
500 to 1000 ft
800 to 1500m
200 to 500 ft
< 800m
< 200 ft
Symbols :   Thunderstorms  Fog  Heavy snow  Heavy precipitations  Wind > 20 kt






- Airport Elevation : 742 ft
- IATA code : RFD


KRFD - Chicago Rockford International

CURRENT METAR :
  • 230754Z 17003KT 10SM CLR 13/08 A2993 RMK AO2 SLP134 T01330083

EXPIRED METARs :
  • 230654Z 16003KT 10SM CLR 13/09 A2994 RMK AO2 SLP135 T01280089
  • 230554Z 25005KT 10SM CLR 16/08 A2994 RMK AO2 SLP135 T01610083 10228 20150 402390150 53013
  • 230454Z 19003KT 10SM CLR 16/08 A2992 RMK AO2 SLP129 T01610083
  • 230354Z 20004KT 10SM CLR 16/08 A2991 RMK AO2 SLP127 T01610078

TAF KRFD
Valid from the 23 at 06:00 until the 24 at 06:00 UTC


230521Z 2306/2406 19005KT P6SM FEW250
FM231800 22007KT P6SM SCT250
FM240300 13004KT P6SM SKC
KZAU FIR / North America



MET'MAP, your aeronautical weather chart ! - Copyright ORBIFLY December 2007 - Disclaimer

ORBIFLY MET'MAP TEAM :

Programming & Development : Alexandra Zaïnal
Original concept : Baudouin d'Aumeries
Technical & hardware support : Manuel Goepfert
Assistance : Marc-Olivier Méhu




SOURCES & CREDITS :

   NOAA       Earth
Advisory